Wetterstation Vordersexau
Wetterdaten: Woche 14.12.15 - 20.12.15 (KW51)
Datum Zeit Temp. A. Feuchte A. Luftdruck Regen Wind Richtung Taupunkt Windchill Windben
14.12.2015 00:00 0,1 C 89 % 1020,3 hPa 0,0 l/m 0,0 km/h O-SO -1,5 C 0,1 C 0,0 km/h
14.12.2015 01:00 -0,5 C 88 % 1020,2 hPa 0,0 l/m 0,0 km/h O-SO -2,2 C -0,5 C 0,0 km/h
14.12.2015 02:00 -0,4 C 88 % 1020,1 hPa 0,0 l/m 0,0 km/h O -2,1 C -0,4 C 0,0 km/h
14.12.2015 03:00 -0,9 C 89 % 1020,0 hPa 0,0 l/m 0,0 km/h O -2,5 C -0,9 C 0,0 km/h
14.12.2015 04:00 -1,1 C 89 % 1019,6 hPa 0,0 l/m 0,0 km/h O-NO -2,7 C -1,1 C 0,0 km/h
14.12.2015 05:00 -1,0 C 89 % 1019,4 hPa 0,0 l/m 0,0 km/h O-NO -2,6 C -1,0 C 0,0 km/h
14.12.2015 06:00 -1,4 C 89 % 1019,3 hPa 0,0 l/m 0,0 km/h O-NO -3,0 C -1,4 C 0,0 km/h
14.12.2015 07:00 -1,8 C 89 % 1019,5 hPa 0,0 l/m 0,0 km/h O-NO -3,4 C -1,8 C 0,0 km/h
14.12.2015 08:00 -1,4 C 88 % 1019,7 hPa 0,0 l/m 0,0 km/h O-NO -3,1 C -1,4 C 0,0 km/h
14.12.2015 09:00 4,1 C 88 % 1020,0 hPa 0,0 l/m 0,0 km/h O-NO 2,3 C 4,1 C 0,0 km/h
14.12.2015 10:00 8,6 C 79 % 1020,1 hPa 0,0 l/m 0,0 km/h NW 5,2 C 8,6 C 0,0 km/h
14.12.2015 11:00 10,4 C 70 % 1019,9 hPa 0,0 l/m 0,0 km/h W-NW 5,2 C 10,4 C 0,0 km/h
14.12.2015 12:00 6,6 C 80 % 1019,8 hPa 0,0 l/m 0,0 km/h W-SW 3,4 C 6,6 C 0,0 km/h
14.12.2015 13:00 9,3 C 79 % 1019,3 hPa 0,0 l/m 0,0 km/h W-SW 5,8 C 9,3 C 0,0 km/h
14.12.2015 14:00 7,8 C 80 % 1018,6 hPa 0,0 l/m 0,0 km/h N-NW 4,6 C 7,8 C 0,0 km/h
14.12.2015 15:00 9,4 C 73 % 1018,8 hPa 0,0 l/m 0,0 km/h W 4,8 C 9,4 C 0,0 km/h
14.12.2015 16:00 6,4 C 82 % 1019,0 hPa 0,0 l/m 0,0 km/h W-NW 3,6 C 6,4 C 0,0 km/h
14.12.2015 17:00 5,9 C 85 % 1019,3 hPa 0,0 l/m 0,0 km/h W-NW 3,6 C 5,9 C 0,0 km/h
14.12.2015 18:00 4,9 C 87 % 1019,3 hPa 0,0 l/m 0,0 km/h W-NW 2,9 C 4,9 C 0,0 km/h
14.12.2015 19:00 5,4 C 87 % 1019,6 hPa 0,0 l/m 0,0 km/h W-NW 3,4 C 5,4 C 0,0 km/h
14.12.2015 20:00 5,1 C 88 % 1019,8 hPa 0,0 l/m 0,0 km/h W-NW 3,3 C 5,1 C 0,0 km/h
14.12.2015 21:00 4,5 C 88 % 1020,2 hPa 0,0 l/m 0,0 km/h W-NW 2,7 C 4,5 C 0,0 km/h
14.12.2015 22:00 3,9 C 88 % 1020,6 hPa 0,0 l/m 0,0 km/h W-NW 2,1 C 3,9 C 0,0 km/h
14.12.2015 23:00 2,6 C 89 % 1021,0 hPa 0,0 l/m 0,0 km/h NO 1,0 C 2,6 C 0,0 km/h
15.12.2015 00:00 2,4 C 88 % 1021,1 hPa 0,0 l/m 0,0 km/h N-NO 0,6 C 2,4 C 0,0 km/h
15.12.2015 01:00 2,9 C 88 % 1020,8 hPa 0,0 l/m 18,1 km/h N-NO 1,1 C -5,0 C 10,1 km/h
15.12.2015 02:00 3,8 C 88 % 1021,3 hPa 0,0 l/m 0,0 km/h N-NO 2,0 C 3,8 C 0,0 km/h
15.12.2015 03:00 4,3 C 89 % 1021,3 hPa 0,0 l/m 16,2 km/h NO 2,7 C -2,4 C 9,0 km/h
15.12.2015 04:00 4,9 C 88 % 1020,9 hPa 0,0 l/m 5,8 km/h O-NO 3,1 C 4,9 C 3,2 km/h
15.12.2015 05:00 4,3 C 89 % 1021,4 hPa 0,0 l/m 0,0 km/h NW 2,7 C 4,3 C 0,0 km/h
15.12.2015 06:00 4,7 C 89 % 1022,1 hPa 0,0 l/m 1,3 km/h NW 3,0 C 4,7 C 0,7 km/h
15.12.2015 07:00 5,2 C 88 % 1022,2 hPa 0,0 l/m 0,0 km/h N 3,4 C 5,2 C 0,0 km/h
15.12.2015 08:00 5,0 C 88 % 1022,6 hPa 0,0 l/m 0,0 km/h O-NO 3,2 C 5,0 C 0,0 km/h
15.12.2015 09:00 6,7 C 88 % 1023,2 hPa 0,0 l/m 0,0 km/h O-NO 4,9 C 6,7 C 0,0 km/h
15.12.2015 10:00 10,5 C 86 % 1023,6 hPa 0,0 l/m 0,0 km/h O-NO 8,3 C 10,5 C 0,0 km/h
15.12.2015 11:00 12,4 C 77 % 1023,3 hPa 0,0 l/m 0,0 km/h O-NO 8,5 C 12,4 C 0,0 km/h
15.12.2015 12:00 13,3 C 74 % 1022,8 hPa 0,0 l/m 0,0 km/h O-NO 8,8 C 13,3 C 0,0 km/h
15.12.2015 13:00 13,4 C 69 % 1022,3 hPa 0,0 l/m 0,0 km/h NO 7,8 C 13,4 C 0,0 km/h
15.12.2015 14:00 11,4 C 73 % 1022,3 hPa 0,0 l/m 0,0 km/h NO 6,7 C 11,4 C 0,0 km/h
15.12.2015 15:00 10,3 C 78 % 1022,6 hPa 0,0 l/m 0,0 km/h NO 6,6 C 10,3 C 0,0 km/h
15.12.2015 16:00 8,8 C 80 % 1022,9 hPa 0,0 l/m 0,0 km/h NO 5,5 C 8,8 C 0,0 km/h
15.12.2015 17:00 7,3 C 82 % 1023,3 hPa 0,0 l/m 0,0 km/h NO 4,4 C 7,3 C 0,0 km/h
15.12.2015 18:00 5,4 C 85 % 1023,5 hPa 0,0 l/m 0,0 km/h O-NO 3,1 C 5,4 C 0,0 km/h
15.12.2015 19:00 5,3 C 87 % 1023,5 hPa 0,0 l/m 0,0 km/h O 3,3 C 5,3 C 0,0 km/h
15.12.2015 20:00 5,4 C 88 % 1023,4 hPa 0,0 l/m 0,0 km/h SO 3,6 C 5,4 C 0,0 km/h
15.12.2015 21:00 4,4 C 88 % 1023,5 hPa 0,0 l/m 0,0 km/h SO 2,6 C 4,4 C 0,0 km/h
15.12.2015 22:00 4,1 C 88 % 1023,8 hPa 0,0 l/m 0,0 km/h S-SO 2,3 C 4,1 C 0,0 km/h
15.12.2015 23:00 5,0 C 88 % 1024,6 hPa 0,0 l/m 0,0 km/h O-SO 3,2 C 5,0 C 0,0 km/h
16.12.2015 00:00 4,9 C 88 % 1025,1 hPa 0,0 l/m 0,0 km/h O-SO 3,1 C 4,9 C 0,0 km/h
16.12.2015 01:00 5,4 C 89 % 1024,9 hPa 0,0 l/m 0,0 km/h SW 3,7 C 5,4 C 0,0 km/h
16.12.2015 02:00 7,6 C 88 % 1025,1 hPa 0,0 l/m 0,0 km/h NO 5,7 C 7,6 C 0,0 km/h
16.12.2015 03:00 7,5 C 88 % 1024,8 hPa 0,4 l/m 0,0 km/h NO 5,6 C 7,5 C 0,0 km/h
16.12.2015 04:00 7,8 C 87 % 1024,6 hPa 1,7 l/m 1,9 km/h S-SO 5,8 C 7,8 C 1,1 km/h
16.12.2015 05:00 9,1 C 86 % 1024,2 hPa 0,0 l/m 0,0 km/h W 6,9 C 9,1 C 0,0 km/h
16.12.2015 06:00 9,9 C 85 % 1024,2 hPa 0,4 l/m 0,0 km/h S-SW 7,5 C 9,9 C 0,0 km/h
16.12.2015 07:00 9,6 C 85 % 1024,5 hPa 0,4 l/m 0,0 km/h W-SW 7,2 C 9,6 C 0,0 km/h
16.12.2015 08:00 10,9 C 87 % 1024,8 hPa 0,0 l/m 13,0 km/h O 8,8 C 7,1 C 7,2 km/h
16.12.2015 09:00 11,6 C 88 % 1025,0 hPa 0,0 l/m 0,0 km/h SW 9,7 C 11,6 C 0,0 km/h
16.12.2015 10:00 13,3 C 85 % 1025,2 hPa 0,0 l/m 10,4 km/h SW 10,8 C 11,0 C 5,8 km/h
16.12.2015 11:00 13,4 C 82 % 1025,2 hPa 0,0 l/m 12,3 km/h S-SW 10,4 C 10,3 C 6,8 km/h
16.12.2015 12:00 12,9 C 82 % 1025,1 hPa 0,0 l/m 21,4 km/h SW 9,9 C 6,6 C 11,9 km/h
16.12.2015 13:00 12,8 C 82 % 1024,9 hPa 0,0 l/m 23,3 km/h W-SW 9,8 C 6,0 C 13,0 km/h
16.12.2015 14:00 12,6 C 83 % 1025,2 hPa 0,0 l/m 3,2 km/h W-SW 9,8 C 12,6 C 1,8 km/h
16.12.2015 15:00 12,4 C 84 % 1025,4 hPa 0,0 l/m 24,6 km/h S-SW 9,8 C 5,2 C 13,7 km/h
16.12.2015 16:00 12,4 C 85 % 1025,5 hPa 0,0 l/m 12,3 km/h W-SW 9,9 C 9,1 C 6,8 km/h
16.12.2015 17:00 12,4 C 85 % 1025,6 hPa 0,0 l/m 19,4 km/h W 9,9 C 6,6 C 10,8 km/h
16.12.2015 18:00 12,3 C 85 % 1025,9 hPa 0,0 l/m 17,5 km/h SW 9,9 C 7,0 C 9,7 km/h
16.12.2015 19:00 12,2 C 86 % 1026,1 hPa 0,0 l/m 12,3 km/h W 9,9 C 8,9 C 6,8 km/h
16.12.2015 20:00 12,3 C 86 % 1026,5 hPa 0,0 l/m 1,9 km/h W-SW 10,0 C 12,3 C 1,1 km/h
16.12.2015 21:00 12,2 C 87 % 1026,8 hPa 0,0 l/m 14,9 km/h W-SW 10,1 C 7,8 C 8,3 km/h
16.12.2015 22:00 12,3 C 86 % 1027,0 hPa 0,0 l/m 22,0 km/h W-SW 10,0 C 5,7 C 12,2 km/h
16.12.2015 23:00 11,9 C 87 % 1026,8 hPa 0,4 l/m 0,0 km/h SW 9,8 C 11,9 C 0,0 km/h
17.12.2015 00:00 11,2 C 87 % 1026,6 hPa 0,0 l/m 0,0 km/h SW 9,1 C 11,2 C 0,0 km/h
17.12.2015 01:00 10,9 C 88 % 1026,4 hPa 0,0 l/m 0,0 km/h N-NW 9,0 C 10,9 C 0,0 km/h
17.12.2015 02:00 10,6 C 88 % 1026,1 hPa 0,0 l/m 0,0 km/h NO 8,7 C 10,6 C 0,0 km/h
17.12.2015 03:00 11,3 C 88 % 1026,0 hPa 0,0 l/m 0,0 km/h NO 9,4 C 11,3 C 0,0 km/h
17.12.2015 04:00 10,7 C 88 % 1025,5 hPa 0,0 l/m 0,0 km/h NO 8,8 C 10,7 C 0,0 km/h
17.12.2015 05:00 10,1 C 88 % 1025,9 hPa 0,0 l/m 0,0 km/h O-NO 8,2 C 10,1 C 0,0 km/h
17.12.2015 06:00 10,3 C 88 % 1025,7 hPa 0,0 l/m 0,0 km/h O-NO 8,4 C 10,3 C 0,0 km/h
17.12.2015 07:00 10,3 C 88 % 1026,0 hPa 0,0 l/m 0,0 km/h O 8,4 C 10,3 C 0,0 km/h
17.12.2015 08:00 10,4 C 88 % 1026,1 hPa 0,0 l/m 0,0 km/h O 8,5 C 10,4 C 0,0 km/h
17.12.2015 09:00 11,3 C 87 % 1026,0 hPa 0,0 l/m 0,0 km/h O-SO 9,2 C 11,3 C 0,0 km/h
17.12.2015 10:00 19,2 C 81 % 1025,8 hPa 0,0 l/m 0,0 km/h SO 15,9 C 19,2 C 0,0 km/h
17.12.2015 11:00 19,6 C 67 % 1025,2 hPa 0,0 l/m 8,4 km/h S-SW 13,3 C 18,8 C 4,7 km/h
17.12.2015 12:00 20,4 C 62 % 1024,4 hPa 0,0 l/m 5,2 km/h N-NO 12,9 C 20,4 C 2,9 km/h
17.12.2015 13:00 20,4 C 60 % 1023,7 hPa 0,0 l/m 7,1 km/h N 12,4 C 20,1 C 4,0 km/h
17.12.2015 14:00 21,7 C 56 % 1023,5 hPa 0,0 l/m 0,0 km/h N 12,5 C 21,7 C 0,0 km/h
17.12.2015 15:00 21,9 C 54 % 1023,3 hPa 0,0 l/m 0,0 km/h O-SO 12,2 C 21,9 C 0,0 km/h
17.12.2015 16:00 13,4 C 73 % 1023,2 hPa 0,0 l/m 0,0 km/h O-SO 8,7 C 13,4 C 0,0 km/h
17.12.2015 17:00 10,4 C 83 % 1022,8 hPa 0,0 l/m 0,0 km/h O-SO 7,6 C 10,4 C 0,0 km/h
17.12.2015 18:00 9,4 C 86 % 1022,8 hPa 0,0 l/m 0,0 km/h SO 7,2 C 9,4 C 0,0 km/h
17.12.2015 19:00 8,7 C 88 % 1022,2 hPa 0,0 l/m 3,9 km/h O-SO 6,8 C 8,7 C 2,2 km/h
17.12.2015 20:00 8,1 C 88 % 1022,5 hPa 0,0 l/m 0,0 km/h SO 6,2 C 8,1 C 0,0 km/h
17.12.2015 21:00 7,2 C 88 % 1022,0 hPa 0,0 l/m 0,0 km/h SO 5,3 C 7,2 C 0,0 km/h
17.12.2015 22:00 7,4 C 88 % 1021,8 hPa 0,0 l/m 0,0 km/h SO 5,5 C 7,4 C 0,0 km/h
17.12.2015 23:00 7,9 C 87 % 1021,7 hPa 0,0 l/m 0,0 km/h O-SO 5,9 C 7,9 C 0,0 km/h
18.12.2015 00:00 6,9 C 88 % 1021,6 hPa 0,0 l/m 0,0 km/h O-SO 5,1 C 6,9 C 0,0 km/h
18.12.2015 01:00 6,9 C 87 % 1021,2 hPa 0,0 l/m 0,0 km/h SO 4,9 C 6,9 C 0,0 km/h
18.12.2015 02:00 7,3 C 87 % 1021,4 hPa 0,0 l/m 0,0 km/h NO 5,3 C 7,3 C 0,0 km/h
18.12.2015 03:00 7,8 C 87 % 1021,5 hPa 0,0 l/m 0,0 km/h W 5,8 C 7,8 C 0,0 km/h
18.12.2015 04:00 11,0 C 88 % 1021,8 hPa 0,0 l/m 1,3 km/h W 9,1 C 11,0 C 0,7 km/h
18.12.2015 05:00 11,9 C 80 % 1022,1 hPa 0,0 l/m 9,1 km/h W 8,6 C 10,2 C 5,0 km/h
18.12.2015 06:00 11,8 C 79 % 1021,8 hPa 0,0 l/m 0,0 km/h N-NO 8,3 C 11,8 C 0,0 km/h
18.12.2015 07:00 11,3 C 80 % 1022,5 hPa 0,0 l/m 0,0 km/h N-NO 8,0 C 11,3 C 0,0 km/h
18.12.2015 08:00 10,8 C 82 % 1023,3 hPa 0,0 l/m 0,0 km/h NO 7,9 C 10,8 C 0,0 km/h
18.12.2015 09:00 11,3 C 82 % 1023,7 hPa 0,0 l/m 0,0 km/h NO 8,3 C 11,3 C 0,0 km/h
18.12.2015 10:00 13,5 C 79 % 1024,0 hPa 0,0 l/m 0,0 km/h N-NW 9,9 C 13,5 C 0,0 km/h
18.12.2015 11:00 13,1 C 78 % 1023,7 hPa 0,0 l/m 0,0 km/h N 9,4 C 13,1 C 0,0 km/h
18.12.2015 12:00 13,7 C 80 % 1023,2 hPa 0,0 l/m 0,0 km/h N-NW 10,3 C 13,7 C 0,0 km/h
18.12.2015 13:00 13,6 C 78 % 1023,2 hPa 0,0 l/m 0,0 km/h N-NO 9,8 C 13,6 C 0,0 km/h
18.12.2015 14:00 13,3 C 78 % 1022,7 hPa 0,0 l/m 0,0 km/h N-NO 9,5 C 13,3 C 0,0 km/h
18.12.2015 15:00 14,6 C 75 % 1022,7 hPa 0,0 l/m 0,0 km/h NO 10,2 C 14,6 C 0,0 km/h
18.12.2015 16:00 10,8 C 81 % 1023,1 hPa 0,0 l/m 0,0 km/h NO 7,7 C 10,8 C 0,0 km/h
18.12.2015 17:00 9,5 C 85 % 1022,9 hPa 0,0 l/m 0,0 km/h O 7,1 C 9,5 C 0,0 km/h
18.12.2015 18:00 9,1 C 87 % 1023,2 hPa 0,0 l/m 0,0 km/h SO 7,1 C 9,1 C 0,0 km/h
18.12.2015 19:00 8,1 C 87 % 1023,1 hPa 0,0 l/m 0,0 km/h O-SO 6,1 C 8,1 C 0,0 km/h
18.12.2015 20:00 7,3 C 88 % 1023,2 hPa 0,0 l/m 0,0 km/h SO 5,4 C 7,3 C 0,0 km/h
18.12.2015 21:00 7,2 C 88 % 1022,9 hPa 0,0 l/m 0,0 km/h O-SO 5,3 C 7,2 C 0,0 km/h
18.12.2015 22:00 7,6 C 88 % 1022,8 hPa 0,0 l/m 0,0 km/h O-SO 5,7 C 7,6 C 0,0 km/h
18.12.2015 23:00 7,6 C 88 % 1022,7 hPa 0,0 l/m 0,0 km/h SO 5,7 C 7,6 C 0,0 km/h
19.12.2015 00:00 7,3 C 88 % 1022,7 hPa 0,0 l/m 0,0 km/h SO 5,4 C 7,3 C 0,0 km/h
19.12.2015 01:00 6,6 C 88 % 1022,5 hPa 0,0 l/m 0,0 km/h SO 4,8 C 6,6 C 0,0 km/h
19.12.2015 02:00 5,8 C 88 % 1022,4 hPa 0,0 l/m 0,0 km/h O 4,0 C 5,8 C 0,0 km/h
19.12.2015 03:00 5,0 C 88 % 1022,3 hPa 0,0 l/m 0,0 km/h O-SO 3,2 C 5,0 C 0,0 km/h
19.12.2015 04:00 4,9 C 88 % 1022,1 hPa 0,0 l/m 0,0 km/h O-NO 3,1 C 4,9 C 0,0 km/h
19.12.2015 05:00 4,9 C 87 % 1022,4 hPa 0,0 l/m 0,0 km/h O-NO 2,9 C 4,9 C 0,0 km/h
19.12.2015 06:00 4,5 C 87 % 1022,6 hPa 0,0 l/m 0,0 km/h SO 2,5 C 4,5 C 0,0 km/h
19.12.2015 07:00 4,8 C 87 % 1022,2 hPa 0,0 l/m 4,5 km/h SO 2,8 C 4,8 C 2,5 km/h
19.12.2015 08:00 5,2 C 86 % 1022,5 hPa 0,0 l/m 0,0 km/h O-SO 3,1 C 5,2 C 0,0 km/h
19.12.2015 09:00 9,1 C 88 % 1022,6 hPa 0,0 l/m 0,0 km/h O 7,2 C 9,1 C 0,0 km/h
19.12.2015 10:00 9,9 C 85 % 1022,6 hPa 0,0 l/m 0,0 km/h O-SO 7,5 C 9,9 C 0,0 km/h
19.12.2015 11:00 12,9 C 80 % 1021,9 hPa 0,0 l/m 0,0 km/h SO 9,5 C 12,9 C 0,0 km/h
19.12.2015 12:00 14,9 C 72 % 1021,6 hPa 0,0 l/m 15,6 km/h O-SO 9,9 C 10,9 C 8,6 km/h
19.12.2015 13:00 17,4 C 64 % 1021,0 hPa 0,0 l/m 0,0 km/h N-NO 10,5 C 17,4 C 0,0 km/h
19.12.2015 14:00 18,8 C 59 % 1020,8 hPa 0,0 l/m 0,0 km/h N-NO 10,6 C 18,8 C 0,0 km/h
19.12.2015 15:00 18,4 C 59 % 1020,7 hPa 0,0 l/m 0,0 km/h NO 10,2 C 18,4 C 0,0 km/h
19.12.2015 16:00 10,9 C 71 % 1020,4 hPa 0,0 l/m 0,0 km/h NO 5,9 C 10,9 C 0,0 km/h
19.12.2015 17:00 7,5 C 83 % 1020,3 hPa 0,0 l/m 0,0 km/h O-SO 4,8 C 7,5 C 0,0 km/h
19.12.2015 18:00 6,7 C 86 % 1020,2 hPa 0,0 l/m 0,0 km/h O-SO 4,5 C 6,7 C 0,0 km/h
19.12.2015 19:00 5,2 C 87 % 1020,5 hPa 0,0 l/m 0,0 km/h O-SO 3,2 C 5,2 C 0,0 km/h
19.12.2015 20:00 4,8 C 88 % 1020,7 hPa 0,0 l/m 0,0 km/h O-SO 3,0 C 4,8 C 0,0 km/h
19.12.2015 21:00 4,3 C 88 % 1020,2 hPa 0,0 l/m 0,0 km/h O-SO 2,5 C 4,3 C 0,0 km/h
19.12.2015 22:00 4,2 C 88 % 1020,0 hPa 0,0 l/m 0,0 km/h SO 2,4 C 4,2 C 0,0 km/h
19.12.2015 23:00 3,6 C 88 % 1019,4 hPa 0,0 l/m 0,0 km/h O-NO 1,8 C 3,6 C 0,0 km/h
20.12.2015 00:00 3,2 C 88 % 1019,1 hPa 0,0 l/m 0,0 km/h O-NO 1,4 C 3,2 C 0,0 km/h
20.12.2015 01:00 1,9 C 88 % 1018,5 hPa 0,0 l/m 0,0 km/h SO 0,1 C 1,9 C 0,0 km/h
20.12.2015 02:00 2,8 C 88 % 1018,4 hPa 0,0 l/m 0,0 km/h NO 1,0 C 2,8 C 0,0 km/h
20.12.2015 03:00 2,1 C 88 % 1018,3 hPa 0,0 l/m 0,0 km/h NO 0,3 C 2,1 C 0,0 km/h
20.12.2015 04:00 2,4 C 88 % 1018,6 hPa 0,0 l/m 0,0 km/h O-NO 0,6 C 2,4 C 0,0 km/h
20.12.2015 05:00 2,1 C 87 % 1018,4 hPa 0,0 l/m 0,0 km/h NO 0,2 C 2,1 C 0,0 km/h
20.12.2015 06:00 2,2 C 87 % 1019,0 hPa 0,0 l/m 0,0 km/h O-SO 0,3 C 2,2 C 0,0 km/h
20.12.2015 07:00 1,0 C 87 % 1019,0 hPa 0,0 l/m 0,0 km/h O -0,9 C 1,0 C 0,0 km/h
20.12.2015 08:00 1,9 C 87 % 1019,4 hPa 0,0 l/m 0,0 km/h SO -0,0 C 1,9 C 0,0 km/h
20.12.2015 09:00 7,8 C 87 % 1020,1 hPa 0,0 l/m 2,6 km/h N-NO 5,8 C 7,8 C 1,4 km/h
20.12.2015 10:00 13,8 C 80 % 1020,3 hPa 0,0 l/m 0,0 km/h NO 10,4 C 13,8 C 0,0 km/h
20.12.2015 11:00 19,6 C 63 % 1019,9 hPa 0,0 l/m 0,0 km/h NO 12,4 C 19,6 C 0,0 km/h
20.12.2015 12:00 21,1 C 53 % 1019,5 hPa 0,0 l/m 0,0 km/h W 11,1 C 21,1 C 0,0 km/h
20.12.2015 13:00 19,4 C 52 % 1019,2 hPa 0,0 l/m 2,6 km/h W 9,3 C 19,4 C 1,4 km/h
20.12.2015 14:00 17,5 C 58 % 1019,3 hPa 0,0 l/m 2,6 km/h W 9,1 C 17,5 C 1,4 km/h
20.12.2015 15:00 15,1 C 60 % 1019,4 hPa 0,0 l/m 0,0 km/h O-SO 7,4 C 15,1 C 0,0 km/h
20.12.2015 16:00 11,5 C 73 % 1019,5 hPa 0,0 l/m 0,0 km/h O-SO 6,8 C 11,5 C 0,0 km/h
20.12.2015 17:00 9,5 C 79 % 1020,0 hPa 0,0 l/m 0,0 km/h O-SO 6,0 C 9,5 C 0,0 km/h
20.12.2015 18:00 9,1 C 82 % 1020,3 hPa 0,0 l/m 0,0 km/h O-SO 6,2 C 9,1 C 0,0 km/h
20.12.2015 19:00 8,8 C 84 % 1020,6 hPa 0,0 l/m 0,0 km/h NO 6,2 C 8,8 C 0,0 km/h
20.12.2015 20:00 8,5 C 86 % 1021,1 hPa 0,0 l/m 0,0 km/h S-SW 6,3 C 8,5 C 0,0 km/h
20.12.2015 21:00 13,3 C 76 % 1021,2 hPa 0,0 l/m 10,4 km/h S-SW 9,2 C 11,0 C 5,8 km/h
20.12.2015 22:00 13,3 C 73 % 1021,3 hPa 0,0 l/m 10,4 km/h S 8,6 C 11,0 C 5,8 km/h
20.12.2015 23:00 13,6 C 72 % 1021,7 hPa 0,0 l/m 3,2 km/h W-SW 8,6 C 13,6 C 1,8 km/h
Min-Datum _ 14.12.15 20.12.15 20.12.15 - 14.12.15 - 14.12.15 15.12.15 14.12.15
_ Min-Zeit 07:42 13:42 03:42 - 00:42 - 07:42 01:42 00:42
Minimum _ -1,8 C 52 % 1018,3 hPa - 0,0 km/h - -3,4 C -5,0 C 0,0 km/h
Max-Datum _ 17.12.15 14.12.15 16.12.15 16.12.15 16.12.15 - 17.12.15 17.12.15 16.12.15
_ Max-Zeit 15:42 00:42 22:42 04:42 15:42 - 10:42 15:42 15:42
Maximum _ 21,9 C 89 % 1027,0 hPa 1,7 l/m 24,6 km/h
S-SW
- 15,9 C 21,9 C 13,7 km/h
S-SW
Durchschnitt _ 8,8 C 83 % 1022,3 hPa #3,3 l/m 2,0 km/h O-SO 5,9 C 8,3 C 1,1 km/h
www.sexauwetter.de